sensor_id;sensor_type;location;lat;lon;timestamp;temperature;humidity
10802;DHT22;5453;50.852;7.102;2022-10-04T00:00:24;11.30;99.90
10802;DHT22;5453;50.852;7.102;2022-10-04T00:03:12;11.20;99.90
10802;DHT22;5453;50.852;7.102;2022-10-04T00:05:53;11.20;99.90
10802;DHT22;5453;50.852;7.102;2022-10-04T00:08:32;11.20;99.90
10802;DHT22;5453;50.852;7.102;2022-10-04T00:11:14;11.20;99.90
10802;DHT22;5453;50.852;7.102;2022-10-04T00:13:52;11.20;99.90
10802;DHT22;5453;50.852;7.102;2022-10-04T00:16:29;11.20;99.90
10802;DHT22;5453;50.852;7.102;2022-10-04T00:19:25;11.10;99.90
10802;DHT22;5453;50.852;7.102;2022-10-04T00:22:18;11.10;99.90
10802;DHT22;5453;50.852;7.102;2022-10-04T00:25:16;11.10;99.90
10802;DHT22;5453;50.852;7.102;2022-10-04T00:28:42;11.10;99.90
10802;DHT22;5453;50.852;7.102;2022-10-04T00:31:21;11.10;99.90
10802;DHT22;5453;50.852;7.102;2022-10-04T00:33:58;11.00;99.90
10802;DHT22;5453;50.852;7.102;2022-10-04T00:37:18;11.00;99.90
10802;DHT22;5453;50.852;7.102;2022-10-04T00:40:07;11.00;99.90
10802;DHT22;5453;50.852;7.102;2022-10-04T00:42:45;10.90;99.90
10802;DHT22;5453;50.852;7.102;2022-10-04T00:45:28;10.90;99.90
10802;DHT22;5453;50.852;7.102;2022-10-04T00:48:19;10.90;99.90
10802;DHT22;5453;50.852;7.102;2022-10-04T00:51:09;10.90;99.90
10802;DHT22;5453;50.852;7.102;2022-10-04T00:53:55;10.90;99.90
10802;DHT22;5453;50.852;7.102;2022-10-04T00:56:38;10.90;99.90
10802;DHT22;5453;50.852;7.102;2022-10-04T00:59:28;10.90;99.90
10802;DHT22;5453;50.852;7.102;2022-10-04T01:02:04;10.90;99.90
10802;DHT22;5453;50.852;7.102;2022-10-04T01:04:42;10.90;99.90
10802;DHT22;5453;50.852;7.102;2022-10-04T01:07:22;11.00;99.90
10802;DHT22;5453;50.852;7.102;2022-10-04T01:10:03;10.90;99.90
10802;DHT22;5453;50.852;7.102;2022-10-04T01:12:45;10.90;99.90
10802;DHT22;5453;50.852;7.102;2022-10-04T01:15:27;11.00;99.90
10802;DHT22;5453;50.852;7.102;2022-10-04T01:18:06;11.00;99.90
10802;DHT22;5453;50.852;7.102;2022-10-04T01:20:53;11.00;99.90
10802;DHT22;5453;50.852;7.102;2022-10-04T01:23:41;11.00;99.90
10802;DHT22;5453;50.852;7.102;2022-10-04T01:26:34;11.00;99.90
10802;DHT22;5453;50.852;7.102;2022-10-04T01:29:12;11.00;99.90
10802;DHT22;5453;50.852;7.102;2022-10-04T01:31:46;10.90;99.90
10802;DHT22;5453;50.852;7.102;2022-10-04T01:34:21;10.90;99.90
10802;DHT22;5453;50.852;7.102;2022-10-04T01:36:56;11.00;99.90
10802;DHT22;5453;50.852;7.102;2022-10-04T01:39:30;11.00;99.90
10802;DHT22;5453;50.852;7.102;2022-10-04T01:42:06;10.90;99.90
10802;DHT22;5453;50.852;7.102;2022-10-04T01:44:44;10.90;99.90
10802;DHT22;5453;50.852;7.102;2022-10-04T01:47:23;10.90;99.90
10802;DHT22;5453;50.852;7.102;2022-10-04T01:50:00;10.90;99.90
10802;DHT22;5453;50.852;7.102;2022-10-04T01:52:39;10.90;99.90
10802;DHT22;5453;50.852;7.102;2022-10-04T01:55:14;10.80;99.90
10802;DHT22;5453;50.852;7.102;2022-10-04T01:57:53;10.80;99.90
10802;DHT22;5453;50.852;7.102;2022-10-04T02:00:42;10.80;99.90
10802;DHT22;5453;50.852;7.102;2022-10-04T02:03:19;10.80;99.90
10802;DHT22;5453;50.852;7.102;2022-10-04T02:05:58;10.80;99.90
10802;DHT22;5453;50.852;7.102;2022-10-04T02:08:35;10.80;99.90
10802;DHT22;5453;50.852;7.102;2022-10-04T02:11:16;10.80;99.90
10802;DHT22;5453;50.852;7.102;2022-10-04T02:13:52;10.70;99.90
10802;DHT22;5453;50.852;7.102;2022-10-04T02:16:26;10.80;99.90
10802;DHT22;5453;50.852;7.102;2022-10-04T02:18:58;10.80;99.90
10802;DHT22;5453;50.852;7.102;2022-10-04T02:21:30;10.80;99.90
10802;DHT22;5453;50.852;7.102;2022-10-04T02:24:03;10.70;99.90
10802;DHT22;5453;50.852;7.102;2022-10-04T02:26:37;10.70;99.90
10802;DHT22;5453;50.852;7.102;2022-10-04T02:29:09;10.70;99.90
10802;DHT22;5453;50.852;7.102;2022-10-04T02:31:42;10.70;99.90
10802;DHT22;5453;50.852;7.102;2022-10-04T02:34:32;10.70;99.90
10802;DHT22;5453;50.852;7.102;2022-10-04T02:37:05;10.70;99.90
10802;DHT22;5453;50.852;7.102;2022-10-04T02:39:41;10.70;99.90
10802;DHT22;5453;50.852;7.102;2022-10-04T02:42:19;10.70;99.90
10802;DHT22;5453;50.852;7.102;2022-10-04T02:44:59;10.60;99.90
10802;DHT22;5453;50.852;7.102;2022-10-04T02:47:42;10.60;99.90
10802;DHT22;5453;50.852;7.102;2022-10-04T02:50:23;10.60;99.90
10802;DHT22;5453;50.852;7.102;2022-10-04T02:53:02;10.60;99.90
10802;DHT22;5453;50.852;7.102;2022-10-04T02:55:43;10.50;99.90
10802;DHT22;5453;50.852;7.102;2022-10-04T02:58:21;10.50;99.90
10802;DHT22;5453;50.852;7.102;2022-10-04T03:00:56;10.50;99.90
10802;DHT22;5453;50.852;7.102;2022-10-04T03:03:29;10.50;99.90
10802;DHT22;5453;50.852;7.102;2022-10-04T03:06:04;10.50;99.90
10802;DHT22;5453;50.852;7.102;2022-10-04T03:08:43;10.50;99.90
10802;DHT22;5453;50.852;7.102;2022-10-04T03:11:19;10.40;99.90
10802;DHT22;5453;50.852;7.102;2022-10-04T03:13:57;10.40;99.90
10802;DHT22;5453;50.852;7.102;2022-10-04T03:16:34;10.40;99.90
10802;DHT22;5453;50.852;7.102;2022-10-04T03:19:07;10.40;99.90
10802;DHT22;5453;50.852;7.102;2022-10-04T03:21:42;10.40;99.90
10802;DHT22;5453;50.852;7.102;2022-10-04T03:24:18;10.30;99.90
10802;DHT22;5453;50.852;7.102;2022-10-04T03:26:54;10.40;99.90
10802;DHT22;5453;50.852;7.102;2022-10-04T03:29:30;10.40;99.90
10802;DHT22;5453;50.852;7.102;2022-10-04T03:32:03;10.40;99.90
10802;DHT22;5453;50.852;7.102;2022-10-04T03:34:37;10.40;99.90
10802;DHT22;5453;50.852;7.102;2022-10-04T03:37:14;10.40;99.90
10802;DHT22;5453;50.852;7.102;2022-10-04T03:39:50;10.40;99.90
10802;DHT22;5453;50.852;7.102;2022-10-04T03:42:25;10.40;99.90
10802;DHT22;5453;50.852;7.102;2022-10-04T03:45:02;10.40;99.90
10802;DHT22;5453;50.852;7.102;2022-10-04T03:47:39;10.40;99.90
10802;DHT22;5453;50.852;7.102;2022-10-04T03:50:17;10.30;99.90
10802;DHT22;5453;50.852;7.102;2022-10-04T03:52:53;10.40;99.90
10802;DHT22;5453;50.852;7.102;2022-10-04T03:55:32;10.40;99.90
10802;DHT22;5453;50.852;7.102;2022-10-04T03:58:07;10.30;99.90
10802;DHT22;5453;50.852;7.102;2022-10-04T04:00:44;10.40;99.90
10802;DHT22;5453;50.852;7.102;2022-10-04T04:03:29;10.40;99.90
10802;DHT22;5453;50.852;7.102;2022-10-04T04:06:10;10.40;99.90
10802;DHT22;5453;50.852;7.102;2022-10-04T04:08:48;10.40;99.90
10802;DHT22;5453;50.852;7.102;2022-10-04T04:11:25;10.30;99.90
10802;DHT22;5453;50.852;7.102;2022-10-04T04:14:01;10.30;99.90
10802;DHT22;5453;50.852;7.102;2022-10-04T04:16:38;10.30;99.90
10802;DHT22;5453;50.852;7.102;2022-10-04T04:19:14;10.30;99.90
10802;DHT22;5453;50.852;7.102;2022-10-04T04:21:49;10.30;99.90
10802;DHT22;5453;50.852;7.102;2022-10-04T04:24:27;10.30;99.90
10802;DHT22;5453;50.852;7.102;2022-10-04T04:27:02;10.30;99.90
10802;DHT22;5453;50.852;7.102;2022-10-04T04:29:41;10.20;99.90
10802;DHT22;5453;50.852;7.102;2022-10-04T04:32:19;10.20;99.90
10802;DHT22;5453;50.852;7.102;2022-10-04T04:34:57;10.20;99.90
10802;DHT22;5453;50.852;7.102;2022-10-04T04:37:37;10.20;99.90
10802;DHT22;5453;50.852;7.102;2022-10-04T04:40:18;10.20;99.90
10802;DHT22;5453;50.852;7.102;2022-10-04T04:42:52;10.10;99.90
10802;DHT22;5453;50.852;7.102;2022-10-04T04:45:29;10.10;99.90
10802;DHT22;5453;50.852;7.102;2022-10-04T04:48:04;10.20;99.90
10802;DHT22;5453;50.852;7.102;2022-10-04T04:50:38;10.10;99.90
10802;DHT22;5453;50.852;7.102;2022-10-04T04:53:14;10.10;99.90
10802;DHT22;5453;50.852;7.102;2022-10-04T04:55:49;10.10;99.90
10802;DHT22;5453;50.852;7.102;2022-10-04T04:58:24;10.10;99.90
10802;DHT22;5453;50.852;7.102;2022-10-04T05:01:01;10.00;99.90
10802;DHT22;5453;50.852;7.102;2022-10-04T05:03:37;10.00;99.90
10802;DHT22;5453;50.852;7.102;2022-10-04T05:06:23;10.00;99.90
10802;DHT22;5453;50.852;7.102;2022-10-04T05:08:56;10.00;99.90
10802;DHT22;5453;50.852;7.102;2022-10-04T05:11:31;10.00;99.90
10802;DHT22;5453;50.852;7.102;2022-10-04T05:14:05;10.00;99.90
10802;DHT22;5453;50.852;7.102;2022-10-04T05:16:41;10.00;99.90
10802;DHT22;5453;50.852;7.102;2022-10-04T05:19:18;10.00;99.90
10802;DHT22;5453;50.852;7.102;2022-10-04T05:21:54;10.00;99.90
10802;DHT22;5453;50.852;7.102;2022-10-04T05:24:30;10.00;99.90
10802;DHT22;5453;50.852;7.102;2022-10-04T05:27:04;10.00;99.90
10802;DHT22;5453;50.852;7.102;2022-10-04T05:29:41;10.00;99.90
10802;DHT22;5453;50.852;7.102;2022-10-04T05:32:26;10.00;99.90
10802;DHT22;5453;50.852;7.102;2022-10-04T05:35:15;9.90;99.90
10802;DHT22;5453;50.852;7.102;2022-10-04T05:37:53;10.00;99.90
10802;DHT22;5453;50.852;7.102;2022-10-04T05:40:42;9.90;99.90
10802;DHT22;5453;50.852;7.102;2022-10-04T05:43:24;9.90;99.90
10802;DHT22;5453;50.852;7.102;2022-10-04T05:46:22;9.90;99.90
10802;DHT22;5453;50.852;7.102;2022-10-04T05:48:58;9.90;99.90
10802;DHT22;5453;50.852;7.102;2022-10-04T05:51:47;10.00;99.90
10802;DHT22;5453;50.852;7.102;2022-10-04T05:54:22;10.00;99.90
10802;DHT22;5453;50.852;7.102;2022-10-04T05:57:33;10.10;99.90
10802;DHT22;5453;50.852;7.102;2022-10-04T06:00:13;10.10;99.90
10802;DHT22;5453;50.852;7.102;2022-10-04T06:03:03;10.10;99.90
10802;DHT22;5453;50.852;7.102;2022-10-04T06:05:49;10.20;99.90
10802;DHT22;5453;50.852;7.102;2022-10-04T06:08:44;10.20;99.90
10802;DHT22;5453;50.852;7.102;2022-10-04T06:11:32;10.20;99.90
10802;DHT22;5453;50.852;7.102;2022-10-04T06:14:42;10.20;99.90
10802;DHT22;5453;50.852;7.102;2022-10-04T06:23:33;10.40;99.90
10802;DHT22;5453;50.852;7.102;2022-10-04T06:26:11;10.40;99.90
10802;DHT22;5453;50.852;7.102;2022-10-04T06:28:46;10.50;99.90
10802;DHT22;5453;50.852;7.102;2022-10-04T06:32:03;10.60;99.90
10802;DHT22;5453;50.852;7.102;2022-10-04T06:38:15;10.70;99.90
10802;DHT22;5453;50.852;7.102;2022-10-04T06:41:17;10.90;99.90
10802;DHT22;5453;50.852;7.102;2022-10-04T06:44:13;11.00;99.90
10802;DHT22;5453;50.852;7.102;2022-10-04T06:47:02;11.10;99.90
10802;DHT22;5453;50.852;7.102;2022-10-04T06:49:45;11.20;99.90
10802;DHT22;5453;50.852;7.102;2022-10-04T06:52:47;11.20;99.90
10802;DHT22;5453;50.852;7.102;2022-10-04T06:55:47;11.20;99.90
10802;DHT22;5453;50.852;7.102;2022-10-04T07:01:35;11.80;99.90
10802;DHT22;5453;50.852;7.102;2022-10-04T07:04:19;12.40;99.90
10802;DHT22;5453;50.852;7.102;2022-10-04T07:07:06;12.80;99.90
10802;DHT22;5453;50.852;7.102;2022-10-04T07:10:02;13.20;99.90
10802;DHT22;5453;50.852;7.102;2022-10-04T07:12:52;13.50;99.90
10802;DHT22;5453;50.852;7.102;2022-10-04T07:15:49;13.50;99.90
10802;DHT22;5453;50.852;7.102;2022-10-04T07:18:28;13.50;99.90
10802;DHT22;5453;50.852;7.102;2022-10-04T07:21:08;13.50;99.90
10802;DHT22;5453;50.852;7.102;2022-10-04T07:23:46;13.60;99.90
10802;DHT22;5453;50.852;7.102;2022-10-04T07:26:26;13.80;99.90
10802;DHT22;5453;50.852;7.102;2022-10-04T07:29:03;14.10;99.90
10802;DHT22;5453;50.852;7.102;2022-10-04T07:32:06;14.40;99.90
10802;DHT22;5453;50.852;7.102;2022-10-04T07:34:45;14.70;99.90
10802;DHT22;5453;50.852;7.102;2022-10-04T07:37:24;14.80;99.90
10802;DHT22;5453;50.852;7.102;2022-10-04T07:40:01;14.90;99.90
10802;DHT22;5453;50.852;7.102;2022-10-04T07:42:39;14.90;99.90
10802;DHT22;5453;50.852;7.102;2022-10-04T07:45:21;14.60;99.90
10802;DHT22;5453;50.852;7.102;2022-10-04T07:48:04;14.40;99.90
10802;DHT22;5453;50.852;7.102;2022-10-04T07:50:48;14.20;99.90
10802;DHT22;5453;50.852;7.102;2022-10-04T07:53:31;14.20;99.90
10802;DHT22;5453;50.852;7.102;2022-10-04T07:56:11;14.50;99.90
10802;DHT22;5453;50.852;7.102;2022-10-04T07:58:56;14.80;99.90
10802;DHT22;5453;50.852;7.102;2022-10-04T08:01:38;15.00;99.90
10802;DHT22;5453;50.852;7.102;2022-10-04T08:04:27;15.00;99.90
10802;DHT22;5453;50.852;7.102;2022-10-04T08:07:13;15.20;99.90
10802;DHT22;5453;50.852;7.102;2022-10-04T08:09:56;15.50;99.90
10802;DHT22;5453;50.852;7.102;2022-10-04T08:12:41;15.80;99.90
10802;DHT22;5453;50.852;7.102;2022-10-04T08:15:33;15.90;99.90
10802;DHT22;5453;50.852;7.102;2022-10-04T08:18:20;15.60;99.90
10802;DHT22;5453;50.852;7.102;2022-10-04T08:21:00;15.50;99.90
10802;DHT22;5453;50.852;7.102;2022-10-04T08:23:43;15.30;99.90
10802;DHT22;5453;50.852;7.102;2022-10-04T08:26:39;15.20;99.90
10802;DHT22;5453;50.852;7.102;2022-10-04T08:29:32;15.00;99.90
10802;DHT22;5453;50.852;7.102;2022-10-04T08:35:33;14.60;99.90
10802;DHT22;5453;50.852;7.102;2022-10-04T08:38:32;14.40;99.90
10802;DHT22;5453;50.852;7.102;2022-10-04T08:54:33;15.40;99.90
10802;DHT22;5453;50.852;7.102;2022-10-04T09:04:38;16.20;99.90
10802;DHT22;5453;50.852;7.102;2022-10-04T09:07:38;16.40;99.90
10802;DHT22;5453;50.852;7.102;2022-10-04T09:10:47;16.60;99.90
10802;DHT22;5453;50.852;7.102;2022-10-04T09:13:37;16.90;99.60
10802;DHT22;5453;50.852;7.102;2022-10-04T09:16:16;17.00;99.00
10802;DHT22;5453;50.852;7.102;2022-10-04T09:18:52;17.20;98.70
10802;DHT22;5453;50.852;7.102;2022-10-04T09:22:15;17.30;98.80
10802;DHT22;5453;50.852;7.102;2022-10-04T09:25:15;17.60;98.40
10802;DHT22;5453;50.852;7.102;2022-10-04T09:28:05;17.80;97.80
10802;DHT22;5453;50.852;7.102;2022-10-04T09:31:00;18.00;97.50
10802;DHT22;5453;50.852;7.102;2022-10-04T09:34:05;18.10;97.20
10802;DHT22;5453;50.852;7.102;2022-10-04T09:37:02;18.30;97.50
10802;DHT22;5453;50.852;7.102;2022-10-04T09:47:00;19.40;95.60
10802;DHT22;5453;50.852;7.102;2022-10-04T09:53:19;19.80;93.70
10802;DHT22;5453;50.852;7.102;2022-10-04T09:59:57;20.30;93.20
10802;DHT22;5453;50.852;7.102;2022-10-04T10:06:29;20.50;91.30
10802;DHT22;5453;50.852;7.102;2022-10-04T10:09:23;20.40;91.20
10802;DHT22;5453;50.852;7.102;2022-10-04T10:12:49;20.40;91.60
10802;DHT22;5453;50.852;7.102;2022-10-04T10:16:09;20.60;90.70
10802;DHT22;5453;50.852;7.102;2022-10-04T10:19:09;20.60;90.90
10802;DHT22;5453;50.852;7.102;2022-10-04T10:22:02;20.70;90.40
10802;DHT22;5453;50.852;7.102;2022-10-04T10:25:05;20.60;90.60
10802;DHT22;5453;50.852;7.102;2022-10-04T10:31:01;20.60;90.80
10802;DHT22;5453;50.852;7.102;2022-10-04T10:37:24;20.70;90.20
10802;DHT22;5453;50.852;7.102;2022-10-04T10:40:22;20.90;90.50
10802;DHT22;5453;50.852;7.102;2022-10-04T10:43:18;20.80;90.00
10802;DHT22;5453;50.852;7.102;2022-10-04T10:46:16;20.90;89.90
10802;DHT22;5453;50.852;7.102;2022-10-04T10:49:29;20.80;90.30
10802;DHT22;5453;50.852;7.102;2022-10-04T10:52:28;20.70;90.40
10802;DHT22;5453;50.852;7.102;2022-10-04T10:55:24;20.50;90.60
10802;DHT22;5453;50.852;7.102;2022-10-04T11:02:32;20.50;90.70
10802;DHT22;5453;50.852;7.102;2022-10-04T11:05:33;20.50;90.90
10802;DHT22;5453;50.852;7.102;2022-10-04T11:09:23;20.50;90.60
10802;DHT22;5453;50.852;7.102;2022-10-04T11:12:20;20.40;91.10
10802;DHT22;5453;50.852;7.102;2022-10-04T11:15:39;20.50;91.30
10802;DHT22;5453;50.852;7.102;2022-10-04T11:18:34;20.50;90.40
10802;DHT22;5453;50.852;7.102;2022-10-04T11:21:45;20.50;86.90
10802;DHT22;5453;50.852;7.102;2022-10-04T11:25:01;20.40;85.20
10802;DHT22;5453;50.852;7.102;2022-10-04T11:27:48;20.30;83.90
10802;DHT22;5453;50.852;7.102;2022-10-04T11:30:26;20.30;85.70
10802;DHT22;5453;50.852;7.102;2022-10-04T11:36:37;20.60;86.40
10802;DHT22;5453;50.852;7.102;2022-10-04T11:39:32;20.80;84.90
10802;DHT22;5453;50.852;7.102;2022-10-04T11:42:23;20.90;87.00
10802;DHT22;5453;50.852;7.102;2022-10-04T11:45:18;21.00;87.80
10802;DHT22;5453;50.852;7.102;2022-10-04T11:48:03;21.00;87.10
10802;DHT22;5453;50.852;7.102;2022-10-04T11:51:06;20.90;86.30
10802;DHT22;5453;50.852;7.102;2022-10-04T11:57:12;20.50;85.90
10802;DHT22;5453;50.852;7.102;2022-10-04T12:00:00;20.30;87.50
10802;DHT22;5453;50.852;7.102;2022-10-04T12:03:04;20.30;88.70
10802;DHT22;5453;50.852;7.102;2022-10-04T12:06:14;20.30;88.00
10802;DHT22;5453;50.852;7.102;2022-10-04T12:09:03;20.30;87.80
10802;DHT22;5453;50.852;7.102;2022-10-04T12:12:21;20.30;88.40
10802;DHT22;5453;50.852;7.102;2022-10-04T12:22:18;20.60;88.50
10802;DHT22;5453;50.852;7.102;2022-10-04T12:25:23;20.60;88.60
10802;DHT22;5453;50.852;7.102;2022-10-04T12:28:23;20.60;88.80
10802;DHT22;5453;50.852;7.102;2022-10-04T12:31:24;20.60;89.10
10802;DHT22;5453;50.852;7.102;2022-10-04T12:34:08;20.60;88.50
10802;DHT22;5453;50.852;7.102;2022-10-04T12:37:06;20.70;88.10
10802;DHT22;5453;50.852;7.102;2022-10-04T12:43:02;20.90;87.70
10802;DHT22;5453;50.852;7.102;2022-10-04T12:45:47;20.90;87.60
10802;DHT22;5453;50.852;7.102;2022-10-04T12:48:41;20.90;86.40
10802;DHT22;5453;50.852;7.102;2022-10-04T12:51:27;20.80;86.60
10802;DHT22;5453;50.852;7.102;2022-10-04T12:54:27;20.80;87.10
10802;DHT22;5453;50.852;7.102;2022-10-04T12:57:26;20.80;88.20
10802;DHT22;5453;50.852;7.102;2022-10-04T13:00:13;20.80;87.20
10802;DHT22;5453;50.852;7.102;2022-10-04T13:03:04;20.80;88.20
10802;DHT22;5453;50.852;7.102;2022-10-04T13:05:54;20.80;87.60
10802;DHT22;5453;50.852;7.102;2022-10-04T13:08:46;20.90;87.00
10802;DHT22;5453;50.852;7.102;2022-10-04T13:11:39;20.90;87.10
10802;DHT22;5453;50.852;7.102;2022-10-04T13:14:39;20.90;87.20
10802;DHT22;5453;50.852;7.102;2022-10-04T13:17:37;21.00;87.40
10802;DHT22;5453;50.852;7.102;2022-10-04T13:20:33;21.10;87.20
10802;DHT22;5453;50.852;7.102;2022-10-04T13:23:20;21.10;86.60
10802;DHT22;5453;50.852;7.102;2022-10-04T13:26:14;21.20;86.00
10802;DHT22;5453;50.852;7.102;2022-10-04T13:28:59;21.20;85.20
10802;DHT22;5453;50.852;7.102;2022-10-04T13:31:39;21.10;85.00
10802;DHT22;5453;50.852;7.102;2022-10-04T13:34:24;21.00;84.20
10802;DHT22;5453;50.852;7.102;2022-10-04T13:37:15;21.00;84.90
10802;DHT22;5453;50.852;7.102;2022-10-04T13:40:23;21.00;85.60
10802;DHT22;5453;50.852;7.102;2022-10-04T13:43:16;21.10;85.70
10802;DHT22;5453;50.852;7.102;2022-10-04T13:46:13;21.10;85.90
10802;DHT22;5453;50.852;7.102;2022-10-04T13:49:02;21.10;86.10
10802;DHT22;5453;50.852;7.102;2022-10-04T13:52:07;21.20;86.50
10802;DHT22;5453;50.852;7.102;2022-10-04T13:55:18;21.20;86.90
10802;DHT22;5453;50.852;7.102;2022-10-04T13:58:24;21.20;86.70
10802;DHT22;5453;50.852;7.102;2022-10-04T14:01:40;21.20;86.90
10802;DHT22;5453;50.852;7.102;2022-10-04T14:04:56;21.30;86.60
10802;DHT22;5453;50.852;7.102;2022-10-04T14:11:41;21.30;87.20
10802;DHT22;5453;50.852;7.102;2022-10-04T14:18:20;21.20;87.50
10802;DHT22;5453;50.852;7.102;2022-10-04T14:32:33;21.20;86.40
10802;DHT22;5453;50.852;7.102;2022-10-04T14:35:33;21.10;87.00
10802;DHT22;5453;50.852;7.102;2022-10-04T14:38:32;21.00;87.10
10802;DHT22;5453;50.852;7.102;2022-10-04T14:44:45;21.00;87.90
10802;DHT22;5453;50.852;7.102;2022-10-04T14:54:35;21.00;87.50
10802;DHT22;5453;50.852;7.102;2022-10-04T14:57:17;21.00;87.40
10802;DHT22;5453;50.852;7.102;2022-10-04T15:00:04;21.00;86.70
10802;DHT22;5453;50.852;7.102;2022-10-04T15:03:06;21.00;86.50
10802;DHT22;5453;50.852;7.102;2022-10-04T15:06:11;20.90;86.70
10802;DHT22;5453;50.852;7.102;2022-10-04T15:12:40;20.90;86.70
10802;DHT22;5453;50.852;7.102;2022-10-04T15:15:26;20.80;86.90
10802;DHT22;5453;50.852;7.102;2022-10-04T15:18:21;20.80;86.90
10802;DHT22;5453;50.852;7.102;2022-10-04T15:21:01;20.70;87.00
10802;DHT22;5453;50.852;7.102;2022-10-04T15:23:42;20.70;87.10
10802;DHT22;5453;50.852;7.102;2022-10-04T15:26:49;20.70;87.40
10802;DHT22;5453;50.852;7.102;2022-10-04T15:29:38;20.60;87.70
10802;DHT22;5453;50.852;7.102;2022-10-04T15:32:22;20.50;87.70
10802;DHT22;5453;50.852;7.102;2022-10-04T15:35:04;20.60;87.70
10802;DHT22;5453;50.852;7.102;2022-10-04T15:37:51;20.50;88.20
10802;DHT22;5453;50.852;7.102;2022-10-04T15:40:34;20.50;88.80
10802;DHT22;5453;50.852;7.102;2022-10-04T15:43:25;20.40;88.60
10802;DHT22;5453;50.852;7.102;2022-10-04T15:46:41;20.40;89.00
10802;DHT22;5453;50.852;7.102;2022-10-04T15:49:35;20.40;88.70
10802;DHT22;5453;50.852;7.102;2022-10-04T15:52:51;20.40;89.10
10802;DHT22;5453;50.852;7.102;2022-10-04T15:55:35;20.30;89.40
10802;DHT22;5453;50.852;7.102;2022-10-04T15:58:43;20.20;89.70
10802;DHT22;5453;50.852;7.102;2022-10-04T16:01:32;20.20;90.00
10802;DHT22;5453;50.852;7.102;2022-10-04T16:04:31;20.20;90.40
10802;DHT22;5453;50.852;7.102;2022-10-04T16:07:39;20.10;90.30
10802;DHT22;5453;50.852;7.102;2022-10-04T16:10:27;20.10;90.60
10802;DHT22;5453;50.852;7.102;2022-10-04T16:13:20;20.00;90.80
10802;DHT22;5453;50.852;7.102;2022-10-04T16:16:46;20.00;90.90
10802;DHT22;5453;50.852;7.102;2022-10-04T16:23:21;19.90;91.20
10802;DHT22;5453;50.852;7.102;2022-10-04T16:25:59;19.80;91.40
10802;DHT22;5453;50.852;7.102;2022-10-04T16:28:48;19.80;91.60
10802;DHT22;5453;50.852;7.102;2022-10-04T16:31:38;19.70;91.80
10802;DHT22;5453;50.852;7.102;2022-10-04T16:34:37;19.60;92.00
10802;DHT22;5453;50.852;7.102;2022-10-04T16:37:27;19.60;92.30
10802;DHT22;5453;50.852;7.102;2022-10-04T16:40:23;19.50;92.60
10802;DHT22;5453;50.852;7.102;2022-10-04T16:43:05;19.40;92.90
10802;DHT22;5453;50.852;7.102;2022-10-04T16:45:44;19.30;93.10
10802;DHT22;5453;50.852;7.102;2022-10-04T16:48:45;19.30;93.40
10802;DHT22;5453;50.852;7.102;2022-10-04T16:51:35;19.20;93.70
10802;DHT22;5453;50.852;7.102;2022-10-04T16:54:41;19.20;94.20
10802;DHT22;5453;50.852;7.102;2022-10-04T16:57:27;19.10;94.80
10802;DHT22;5453;50.852;7.102;2022-10-04T17:00:24;18.90;95.20
10802;DHT22;5453;50.852;7.102;2022-10-04T17:03:20;18.80;95.70
10802;DHT22;5453;50.852;7.102;2022-10-04T17:06:13;18.80;96.00
10802;DHT22;5453;50.852;7.102;2022-10-04T17:08:52;18.70;96.40
10802;DHT22;5453;50.852;7.102;2022-10-04T17:11:42;18.60;96.80
10802;DHT22;5453;50.852;7.102;2022-10-04T17:14:34;18.50;97.10
10802;DHT22;5453;50.852;7.102;2022-10-04T17:17:29;18.40;97.70
10802;DHT22;5453;50.852;7.102;2022-10-04T17:20:17;18.30;97.80
10802;DHT22;5453;50.852;7.102;2022-10-04T17:23:11;18.20;98.20
10802;DHT22;5453;50.852;7.102;2022-10-04T17:26:00;18.10;98.50
10802;DHT22;5453;50.852;7.102;2022-10-04T17:28:45;18.10;98.90
10802;DHT22;5453;50.852;7.102;2022-10-04T17:31:26;18.00;99.10
10802;DHT22;5453;50.852;7.102;2022-10-04T17:34:12;17.90;99.60
10802;DHT22;5453;50.852;7.102;2022-10-04T17:36:52;17.90;99.50
10802;DHT22;5453;50.852;7.102;2022-10-04T17:39:41;17.80;99.80
10802;DHT22;5453;50.852;7.102;2022-10-04T17:42:27;17.80;99.90
10802;DHT22;5453;50.852;7.102;2022-10-04T17:45:24;17.60;99.90
10802;DHT22;5453;50.852;7.102;2022-10-04T17:48:22;17.60;99.90
10802;DHT22;5453;50.852;7.102;2022-10-04T17:51:36;17.50;99.90
10802;DHT22;5453;50.852;7.102;2022-10-04T17:54:33;17.50;99.90
10802;DHT22;5453;50.852;7.102;2022-10-04T17:57:39;17.40;99.90
10802;DHT22;5453;50.852;7.102;2022-10-04T18:00:17;17.30;99.90
10802;DHT22;5453;50.852;7.102;2022-10-04T18:03:06;17.30;99.90
10802;DHT22;5453;50.852;7.102;2022-10-04T18:05:48;17.20;99.90
10802;DHT22;5453;50.852;7.102;2022-10-04T18:08:33;17.10;99.90
10802;DHT22;5453;50.852;7.102;2022-10-04T18:11:19;17.00;99.90
10802;DHT22;5453;50.852;7.102;2022-10-04T18:14:01;16.90;99.90
10802;DHT22;5453;50.852;7.102;2022-10-04T18:16:45;16.80;99.90
10802;DHT22;5453;50.852;7.102;2022-10-04T18:19:37;16.80;99.90
10802;DHT22;5453;50.852;7.102;2022-10-04T18:22:14;16.70;99.90
10802;DHT22;5453;50.852;7.102;2022-10-04T18:24:48;16.70;99.90
10802;DHT22;5453;50.852;7.102;2022-10-04T18:27:47;16.60;99.90
10802;DHT22;5453;50.852;7.102;2022-10-04T18:30:23;16.60;99.90
10802;DHT22;5453;50.852;7.102;2022-10-04T18:32:56;16.60;99.90
10802;DHT22;5453;50.852;7.102;2022-10-04T18:35:31;16.50;99.90
10802;DHT22;5453;50.852;7.102;2022-10-04T18:38:19;16.50;99.90
10802;DHT22;5453;50.852;7.102;2022-10-04T18:40:55;16.50;99.90
10802;DHT22;5453;50.852;7.102;2022-10-04T18:43:32;16.40;99.90
10802;DHT22;5453;50.852;7.102;2022-10-04T18:46:14;16.30;99.90
10802;DHT22;5453;50.852;7.102;2022-10-04T18:48:51;16.30;99.90
10802;DHT22;5453;50.852;7.102;2022-10-04T18:51:29;16.30;99.90
10802;DHT22;5453;50.852;7.102;2022-10-04T18:54:12;16.30;99.90
10802;DHT22;5453;50.852;7.102;2022-10-04T18:56:59;16.20;99.90
10802;DHT22;5453;50.852;7.102;2022-10-04T18:59:45;16.20;99.90
10802;DHT22;5453;50.852;7.102;2022-10-04T19:02:51;16.20;99.90
10802;DHT22;5453;50.852;7.102;2022-10-04T19:05:37;16.10;99.90
10802;DHT22;5453;50.852;7.102;2022-10-04T19:08:21;16.10;99.90
10802;DHT22;5453;50.852;7.102;2022-10-04T19:11:08;16.00;99.90
10802;DHT22;5453;50.852;7.102;2022-10-04T19:13:47;15.90;99.90
10802;DHT22;5453;50.852;7.102;2022-10-04T19:16:35;15.90;99.90
10802;DHT22;5453;50.852;7.102;2022-10-04T19:19:33;15.90;99.90
10802;DHT22;5453;50.852;7.102;2022-10-04T19:22:22;15.80;99.90
10802;DHT22;5453;50.852;7.102;2022-10-04T19:25:26;15.80;99.90
10802;DHT22;5453;50.852;7.102;2022-10-04T19:28:14;15.80;99.90
10802;DHT22;5453;50.852;7.102;2022-10-04T19:30:59;15.80;99.90
10802;DHT22;5453;50.852;7.102;2022-10-04T19:33:46;15.80;99.90
10802;DHT22;5453;50.852;7.102;2022-10-04T19:36:44;15.80;99.90
10802;DHT22;5453;50.852;7.102;2022-10-04T19:39:33;15.70;99.90
10802;DHT22;5453;50.852;7.102;2022-10-04T19:42:14;15.70;99.90
10802;DHT22;5453;50.852;7.102;2022-10-04T19:44:59;15.70;99.90
10802;DHT22;5453;50.852;7.102;2022-10-04T19:47:43;15.60;99.90
10802;DHT22;5453;50.852;7.102;2022-10-04T19:50:21;15.60;99.90
10802;DHT22;5453;50.852;7.102;2022-10-04T19:53:01;15.60;99.90
10802;DHT22;5453;50.852;7.102;2022-10-04T19:55:44;15.60;99.90